createdAt,value
2022-10-07T00:03:38.953Z,10.0
2022-10-07T00:08:45.170Z,8.0
2022-10-07T00:13:50.397Z,9.0
2022-10-07T00:18:56.606Z,8.0
2022-10-07T00:24:02.829Z,9.0
2022-10-07T00:29:09.024Z,9.0
2022-10-07T00:34:15.233Z,8.0
2022-10-07T00:39:21.438Z,9.5
2022-10-07T00:44:27.652Z,11.0
2022-10-07T00:49:33.856Z,9.0
2022-10-07T00:54:40.067Z,7.0
2022-10-07T00:59:46.275Z,9.0
2022-10-07T01:04:52.480Z,9.0
2022-10-07T01:09:58.687Z,10.0
2022-10-07T01:15:04.904Z,10.0
2022-10-07T01:20:11.110Z,9.0
2022-10-07T01:25:17.313Z,9.0
2022-10-07T01:30:23.522Z,9.0
2022-10-07T01:35:29.740Z,9.0
2022-10-07T01:40:35.939Z,9.0
2022-10-07T01:45:42.149Z,7.0
2022-10-07T01:50:48.359Z,7.0
2022-10-07T01:55:54.565Z,8.0
2022-10-07T02:00:59.799Z,10.0
2022-10-07T02:06:06.007Z,10.0
2022-10-07T02:11:11.248Z,8.0
2022-10-07T02:16:17.548Z,8.0
2022-10-07T02:21:23.663Z,9.0
2022-10-07T02:26:29.869Z,10.0
2022-10-07T02:31:36.073Z,8.0
2022-10-07T02:36:42.283Z,8.0
2022-10-07T02:41:47.513Z,7.0
2022-10-07T02:46:53.729Z,9.0
2022-10-07T02:51:59.921Z,8.0
2022-10-07T02:57:06.134Z,10.0
2022-10-07T03:02:12.341Z,8.0
2022-10-07T03:07:18.547Z,9.5
2022-10-07T03:12:24.767Z,9.0
2022-10-07T03:17:30.968Z,8.0
2022-10-07T03:22:37.174Z,8.0
2022-10-07T03:27:43.666Z,9.0
2022-10-07T03:32:49.607Z,8.0
2022-10-07T03:37:55.807Z,9.5
2022-10-07T03:43:02.011Z,9.0
2022-10-07T03:48:08.217Z,11.0
2022-10-07T03:53:14.428Z,10.0
2022-10-07T03:58:19.664Z,9.0
2022-10-07T04:03:25.960Z,9.0
2022-10-07T04:08:32.513Z,10.5
2022-10-07T04:13:37.314Z,9.0
2022-10-07T04:18:43.522Z,8.0
2022-10-07T04:23:49.727Z,9.0
2022-10-07T04:28:55.940Z,9.0
2022-10-07T04:34:02.149Z,8.0
2022-10-07T04:39:08.356Z,11.0
2022-10-07T04:44:14.578Z,9.0
2022-10-07T04:49:20.768Z,9.0
2022-10-07T04:54:26.975Z,9.0
2022-10-07T04:59:34.475Z,8.0
2022-10-07T05:04:39.402Z,10.0
2022-10-07T05:09:45.602Z,10.0
2022-10-07T05:14:51.810Z,8.0
2022-10-07T05:19:58.015Z,9.0
2022-10-07T05:25:04.234Z,11.0
2022-10-07T05:30:10.441Z,12.0
2022-10-07T05:35:16.636Z,11.0
2022-10-07T05:40:22.841Z,10.0
2022-10-07T05:45:29.155Z,10.0
2022-10-07T05:50:35.262Z,9.0
2022-10-07T05:55:41.470Z,10.0
2022-10-07T06:00:46.704Z,9.0
2022-10-07T06:05:52.911Z,9.0
2022-10-07T06:10:58.144Z,9.5
2022-10-07T06:16:04.357Z,10.0
2022-10-07T06:21:10.569Z,9.5
2022-10-07T06:26:16.773Z,10.0
2022-10-07T06:31:22.992Z,10.0
2022-10-07T06:36:29.186Z,8.0
2022-10-07T06:41:35.396Z,8.0
2022-10-07T06:46:41.598Z,14.0
2022-10-07T06:51:47.806Z,9.0
2022-10-07T06:56:54.020Z,9.0
2022-10-07T07:02:00.249Z,8.5
2022-10-07T07:07:06.437Z,7.5
2022-10-07T07:12:12.644Z,8.0
2022-10-07T07:17:18.850Z,9.0
2022-10-07T07:22:25.056Z,8.0
2022-10-07T07:27:31.278Z,9.0
2022-10-07T07:32:37.485Z,10.0
2022-10-07T07:37:43.915Z,9.0
2022-10-07T07:42:49.897Z,8.0
2022-10-07T07:47:56.104Z,9.0
2022-10-07T07:53:02.306Z,8.0
2022-10-07T07:58:11.848Z,9.0
2022-10-07T08:03:13.753Z,8.0
2022-10-07T08:08:19.964Z,8.5
2022-10-07T08:13:25.193Z,10.0
2022-10-07T08:18:31.408Z,8.0
2022-10-07T08:23:37.608Z,8.0
2022-10-07T08:28:43.818Z,9.0
2022-10-07T08:33:50.025Z,8.0
2022-10-07T08:38:56.236Z,8.0
2022-10-07T08:44:04.189Z,9.0
2022-10-07T08:49:08.669Z,9.0
2022-10-07T08:54:14.860Z,7.0
2022-10-07T08:59:21.077Z,8.0
2022-10-07T09:04:27.280Z,11.0
2022-10-07T09:09:33.497Z,9.0
2022-10-07T09:14:39.722Z,9.0
2022-10-07T09:19:45.932Z,7.0
2022-10-07T09:24:52.138Z,9.0
2022-10-07T09:29:58.363Z,12.0
2022-10-07T09:35:04.578Z,10.0
2022-10-07T09:40:10.776Z,8.0
2022-10-07T09:45:16.976Z,8.0
2022-10-07T09:50:23.215Z,7.0
2022-10-07T09:55:29.392Z,7.0
2022-10-07T10:00:34.637Z,11.0
2022-10-07T10:05:40.847Z,8.0
2022-10-07T10:10:47.047Z,8.0
2022-10-07T10:15:53.307Z,8.0
2022-10-07T10:20:59.466Z,9.0
2022-10-07T10:26:05.681Z,9.0
2022-10-07T10:31:11.915Z,7.5
2022-10-07T10:36:18.086Z,8.0
2022-10-07T10:41:24.298Z,7.0
2022-10-07T10:46:30.557Z,6.0
2022-10-07T10:51:36.715Z,6.0
2022-10-07T10:56:42.929Z,9.0
2022-10-07T11:01:49.211Z,6.0
2022-10-07T11:06:55.342Z,5.5
2022-10-07T11:12:01.758Z,6.0
2022-10-07T11:17:07.759Z,7.0
2022-10-07T11:22:13.973Z,6.0
2022-10-07T11:27:20.177Z,7.0
2022-10-07T11:32:26.381Z,7.0
2022-10-07T11:37:32.591Z,6.0
2022-10-07T11:42:38.800Z,5.5
2022-10-07T11:47:44.040Z,6.0
2022-10-07T11:52:50.631Z,6.5
2022-10-07T11:57:55.489Z,5.0
2022-10-07T12:03:01.720Z,6.0
2022-10-07T12:08:06.918Z,7.0
2022-10-07T12:13:13.132Z,6.0
2022-10-07T12:18:19.340Z,5.5
2022-10-07T12:23:25.555Z,7.0
2022-10-07T12:28:31.810Z,5.0
2022-10-07T12:33:37.968Z,6.0
2022-10-07T12:38:44.179Z,5.0
2022-10-07T12:43:50.388Z,6.0
2022-10-07T12:48:56.590Z,6.0
2022-10-07T12:54:02.805Z,5.5
2022-10-07T12:59:09.009Z,5.0
2022-10-07T13:04:15.215Z,5.5
2022-10-07T13:09:21.430Z,4.0
2022-10-07T13:14:27.641Z,6.0
2022-10-07T13:19:33.849Z,5.0
2022-10-07T13:24:40.053Z,5.0
2022-10-07T13:29:46.261Z,6.0
2022-10-07T13:34:52.473Z,4.0
2022-10-07T13:39:58.681Z,5.0
2022-10-07T13:45:04.888Z,5.0
2022-10-07T13:50:11.111Z,4.0
2022-10-07T13:55:16.336Z,5.0
2022-10-07T14:00:22.546Z,5.0
2022-10-07T14:05:27.791Z,6.0
2022-10-07T14:10:33.995Z,8.0
2022-10-07T14:15:40.202Z,5.0
2022-10-07T14:20:46.407Z,5.0
2022-10-07T14:25:52.618Z,5.0
2022-10-07T14:30:58.874Z,5.0
2022-10-07T14:36:05.029Z,5.0
2022-10-07T14:41:11.246Z,6.0
2022-10-07T14:46:17.520Z,6.0
2022-10-07T14:51:23.659Z,5.0
2022-10-07T14:56:29.873Z,5.0
2022-10-07T15:01:36.076Z,5.0
2022-10-07T15:06:42.289Z,5.0
2022-10-07T15:11:48.495Z,4.0
2022-10-07T15:16:54.804Z,5.0
2022-10-07T15:22:00.918Z,5.0
2022-10-07T15:27:07.128Z,4.0
2022-10-07T15:32:13.336Z,5.0
2022-10-07T15:37:19.544Z,5.0
2022-10-07T15:42:25.755Z,5.0
2022-10-07T15:47:31.957Z,5.0
2022-10-07T15:52:37.189Z,4.0
2022-10-07T15:57:43.404Z,5.5
2022-10-07T16:02:49.946Z,5.0
2022-10-07T16:07:55.816Z,6.0
2022-10-07T16:13:02.040Z,5.0
2022-10-07T16:18:08.237Z,4.0
2022-10-07T16:23:14.442Z,5.0
2022-10-07T16:28:20.699Z,3.0
2022-10-07T16:33:26.853Z,5.5
2022-10-07T16:38:33.064Z,5.0
2022-10-07T16:43:39.275Z,5.0
2022-10-07T16:48:45.479Z,5.0
2022-10-07T16:53:51.697Z,6.0
2022-10-07T16:58:57.903Z,5.0
2022-10-07T17:04:04.169Z,5.0
2022-10-07T17:09:10.318Z,6.5
2022-10-07T17:14:16.637Z,6.0
2022-10-07T17:19:22.742Z,6.0
2022-10-07T17:24:28.941Z,6.0
2022-10-07T17:29:35.155Z,5.0
2022-10-07T17:34:45.275Z,6.0
2022-10-07T17:39:46.607Z,5.0
2022-10-07T17:44:52.808Z,7.0
2022-10-07T17:49:58.051Z,6.0
2022-10-07T17:55:04.262Z,7.0
2022-10-07T18:00:09.489Z,6.0
2022-10-07T18:05:15.694Z,7.0
2022-10-07T18:10:21.912Z,7.0
2022-10-07T18:15:28.108Z,7.0
2022-10-07T18:20:34.328Z,9.0
2022-10-07T18:25:40.526Z,6.0
2022-10-07T18:30:46.736Z,5.0
2022-10-07T18:35:52.949Z,8.0
2022-10-07T18:40:59.151Z,8.0
2022-10-07T18:46:05.458Z,6.0
2022-10-07T18:51:11.600Z,6.0
2022-10-07T18:56:17.786Z,7.0
2022-10-07T19:01:24.130Z,7.0
2022-10-07T19:06:30.202Z,9.0
2022-10-07T19:11:36.427Z,8.0
2022-10-07T19:16:42.711Z,10.0
2022-10-07T19:21:48.855Z,8.5
2022-10-07T19:26:55.077Z,7.0
2022-10-07T19:32:05.723Z,5.0
2022-10-07T19:37:07.503Z,7.0
2022-10-07T19:42:13.717Z,9.0
2022-10-07T19:47:18.967Z,7.0
2022-10-07T19:52:25.189Z,7.0
2022-10-07T19:57:30.424Z,8.0
2022-10-07T20:02:36.722Z,6.0
2022-10-07T20:07:42.904Z,7.0
2022-10-07T20:12:49.067Z,7.0
2022-10-07T20:17:55.287Z,9.0
2022-10-07T20:23:01.504Z,8.0
2022-10-07T20:28:07.746Z,8.0
2022-10-07T20:33:13.941Z,7.0
2022-10-07T20:38:20.211Z,9.0
2022-10-07T20:43:26.357Z,8.0
2022-10-07T20:48:32.586Z,7.0
2022-10-07T20:53:38.786Z,10.0
2022-10-07T20:58:45.012Z,7.0
2022-10-07T21:03:51.223Z,8.0
2022-10-07T21:08:57.438Z,8.0
2022-10-07T21:14:03.651Z,8.0
2022-10-07T21:19:09.863Z,8.0
2022-10-07T21:24:16.076Z,8.0
2022-10-07T21:29:22.291Z,7.0
2022-10-07T21:34:28.518Z,9.0
2022-10-07T21:39:34.718Z,7.0
2022-10-07T21:44:39.965Z,8.0
2022-10-07T21:49:46.179Z,8.0
2022-10-07T21:54:52.396Z,7.0
2022-10-07T21:59:58.602Z,7.0
2022-10-07T22:05:04.827Z,8.0
2022-10-07T22:10:11.033Z,8.0
2022-10-07T22:15:17.241Z,7.0
2022-10-07T22:20:23.459Z,9.0
2022-10-07T22:25:29.673Z,7.5
2022-10-07T22:30:36.015Z,8.0
2022-10-07T22:35:42.101Z,8.0
2022-10-07T22:40:48.306Z,7.0
2022-10-07T22:51:00.733Z,8.5
2022-10-07T22:56:06.982Z,8.0
2022-10-07T23:01:13.157Z,8.0
2022-10-07T23:06:19.358Z,8.0
2022-10-07T23:11:25.572Z,8.0
2022-10-07T23:16:31.779Z,8.0
2022-10-07T23:21:38.000Z,6.0
2022-10-07T23:26:44.205Z,8.0
2022-10-07T23:31:50.421Z,7.0
2022-10-07T23:36:55.664Z,7.0
2022-10-07T23:42:01.867Z,8.0
2022-10-07T23:47:07.111Z,8.0
2022-10-07T23:52:13.322Z,8.0
2022-10-07T23:57:19.536Z,5.0
